Time;durP1;ratioP1;P1;durP2;ratioP2;P2;SDS_P1;SDS_P2;PMS_P1;PMS_P2;Temp;Humidity;BMP_temperature;BMP_pressure;BME280_temperature;BME280_humidity;BME280_pressure;Samples;Min_cycle;Max_cycle;Signal;HPM_P1;HPM_P2
2021/10/18 00:02:16;;;;;;;12.25;9.02;;;12.30;94.60;;;;;;5036605;28;20163;-86
2021/10/18 00:04:42;;;;;;;11.90;8.70;;;12.30;94.70;;;;;;5038616;28;20060;-87
2021/10/18 00:07:07;;;;;;;14.57;10.13;;;12.30;94.70;;;;;;5056342;28;20036;-86
2021/10/18 00:09:33;;;;;;;14.45;9.98;;;12.30;94.80;;;;;;5037235;28;20029;-86
2021/10/18 00:11:59;;;;;;;13.52;9.20;;;12.30;94.70;;;;;;5036502;28;20029;-86
2021/10/18 00:14:24;;;;;;;13.88;9.32;;;12.30;94.70;;;;;;5033558;28;20091;-86
2021/10/18 00:16:50;;;;;;;13.82;9.82;;;12.20;94.70;;;;;;5022188;28;20461;-86
2021/10/18 00:19:16;;;;;;;11.43;8.95;;;12.20;94.60;;;;;;5049467;28;20028;-87
2021/10/18 00:21:42;;;;;;;15.15;9.30;;;12.20;94.60;;;;;;5025682;28;20032;-86
2021/10/18 00:24:07;;;;;;;13.10;8.63;;;12.20;94.70;;;;;;5027129;28;20145;-86
2021/10/18 00:26:33;;;;;;;13.95;9.45;;;12.20;94.70;;;;;;5030552;28;20056;-86
2021/10/18 00:28:59;;;;;;;15.07;9.02;;;12.20;94.80;;;;;;5043623;28;20053;-86
2021/10/18 00:31:25;;;;;;;15.85;8.80;;;12.20;94.80;;;;;;5056938;28;20024;-86
2021/10/18 00:33:51;;;;;;;12.80;9.50;;;12.10;94.80;;;;;;5041841;28;20100;-86
2021/10/18 00:36:16;;;;;;;14.93;8.90;;;12.10;94.80;;;;;;5045957;28;20040;-86
2021/10/18 00:38:42;;;;;;;15.23;10.00;;;12.10;94.90;;;;;;5050486;28;20013;-86
2021/10/18 00:41:08;;;;;;;11.55;8.55;;;12.10;94.90;;;;;;5019865;28;20025;-86
2021/10/18 00:43:34;;;;;;;14.45;9.60;;;12.10;95.00;;;;;;5037310;28;20029;-86
2021/10/18 00:45:59;;;;;;;11.80;8.93;;;12.10;95.00;;;;;;5021666;28;20061;-86
2021/10/18 00:48:25;;;;;;;14.13;9.27;;;12.10;95.00;;;;;;5035402;28;20060;-86
2021/10/18 00:50:56;;;;;;;15.15;9.32;;;12.10;95.00;;;;;;5044598;28;20033;-86
2021/10/18 00:53:25;;;;;;;12.15;8.93;;;12.10;95.00;;;;;;5055465;28;20040;-87
2021/10/18 00:55:53;;;;;;;14.25;9.90;;;12.00;95.00;;;;;;5035821;28;20033;-87
2021/10/18 00:58:20;;;;;;;11.77;8.98;;;12.00;95.00;;;;;;5035385;28;20025;-86
2021/10/18 01:00:46;;;;;;;14.23;8.77;;;12.00;95.10;;;;;;5035880;28;20033;-86
2021/10/18 01:03:12;;;;;;;11.15;8.82;;;12.00;95.10;;;;;;5019249;28;20575;-86
2021/10/18 01:05:41;;;;;;;13.70;9.25;;;12.00;95.10;;;;;;5049625;28;20086;-87
2021/10/18 01:08:09;;;;;;;12.75;9.23;;;12.00;95.20;;;;;;5025929;28;20031;-86
2021/10/18 01:10:35;;;;;;;13.13;8.80;;;11.90;95.20;;;;;;5039142;28;20423;-86
2021/10/18 01:13:00;;;;;;;12.75;9.20;;;12.00;95.20;;;;;;5055837;28;20083;-86
2021/10/18 01:15:26;;;;;;;14.93;9.50;;;11.90;95.10;;;;;;5073673;28;20017;-89
2021/10/18 01:17:52;;;;;;;13.13;9.93;;;11.90;95.00;;;;;;5062023;28;20325;-87
2021/10/18 01:20:35;;;;;;;12.27;8.88;;;11.90;95.10;;;;;;5042434;28;20077;-86
2021/10/18 01:23:01;;;;;;;11.32;8.60;;;11.90;95.00;;;;;;5058715;28;20036;-87
2021/10/18 01:25:27;;;;;;;13.02;8.43;;;11.90;95.00;;;;;;5041992;28;20013;-88
2021/10/18 01:27:54;;;;;;;12.80;9.02;;;11.80;95.00;;;;;;5060127;28;20021;-87
2021/10/18 01:30:20;;;;;;;12.40;9.10;;;11.80;95.10;;;;;;5050021;28;20028;-86
2021/10/18 01:32:46;;;;;;;10.98;8.52;;;11.80;95.20;;;;;;5045693;28;20447;-86
2021/10/18 01:35:13;;;;;;;11.88;8.82;;;11.70;95.10;;;;;;5018771;28;20044;-86
2021/10/18 01:37:39;;;;;;;13.45;8.82;;;11.70;95.20;;;;;;5035393;28;20084;-86
2021/10/18 01:40:09;;;;;;;11.20;8.93;;;11.70;95.20;;;;;;5036816;28;20029;-86
2021/10/18 01:42:35;;;;;;;12.70;8.83;;;11.70;95.20;;;;;;5016330;28;20034;-86
2021/10/18 01:45:01;;;;;;;13.95;8.95;;;11.60;95.20;;;;;;5035445;28;20370;-86
2021/10/18 01:47:27;;;;;;;12.48;9.00;;;11.60;95.30;;;;;;5041427;28;20036;-86
2021/10/18 01:49:56;;;;;;;12.82;9.30;;;11.60;95.20;;;;;;5038327;28;20053;-86
2021/10/18 01:52:22;;;;;;;14.40;9.10;;;11.60;95.20;;;;;;5041802;28;20028;-86
2021/10/18 01:54:48;;;;;;;11.85;9.50;;;11.60;95.30;;;;;;5055103;28;20041;-88
2021/10/18 01:57:14;;;;;;;12.02;8.73;;;11.50;95.30;;;;;;5033985;28;20021;-86
2021/10/18 01:59:40;;;;;;;13.85;9.00;;;11.60;95.30;;;;;;5018197;28;20466;-86
2021/10/18 02:02:06;;;;;;;13.52;8.63;;;11.50;95.40;;;;;;5034914;28;20112;-87
2021/10/18 02:04:31;;;;;;;12.75;8.88;;;11.50;95.50;;;;;;5047918;28;20497;-87
2021/10/18 02:06:57;;;;;;;14.45;9.00;;;11.50;95.50;;;;;;5019700;28;20052;-86
2021/10/18 02:09:23;;;;;;;14.30;9.25;;;11.50;95.60;;;;;;5001840;28;20148;-86
2021/10/18 02:11:49;;;;;;;13.05;8.95;;;11.50;95.60;;;;;;5018184;28;20056;-86
2021/10/18 02:14:15;;;;;;;14.18;9.68;;;11.50;95.60;;;;;;5017731;28;20041;-86
2021/10/18 02:16:41;;;;;;;14.43;9.85;;;11.50;95.70;;;;;;5001364;28;20056;-86
2021/10/18 02:19:06;;;;;;;12.80;9.65;;;11.40;95.70;;;;;;5035082;28;20444;-86
2021/10/18 02:21:32;;;;;;;14.82;10.98;;;11.50;95.80;;;;;;5026125;28;20030;-87
2021/10/18 02:23:58;;;;;;;14.10;10.43;;;11.40;95.80;;;;;;5034575;28;20388;-86
2021/10/18 02:26:23;;;;;;;13.38;9.73;;;11.50;95.80;;;;;;5018113;28;20030;-86
2021/10/18 02:28:49;;;;;;;14.35;10.18;;;11.40;95.70;;;;;;5017816;28;20041;-87
2021/10/18 02:31:15;;;;;;;14.65;10.82;;;11.50;95.80;;;;;;5017577;28;20025;-86
2021/10/18 02:33:40;;;;;;;19.08;11.20;;;11.50;95.80;;;;;;5017774;28;20041;-86
2021/10/18 02:36:06;;;;;;;17.27;11.18;;;11.50;95.80;;;;;;5034349;28;20033;-86
2021/10/18 02:38:32;;;;;;;14.30;11.55;;;11.50;95.90;;;;;;5035104;28;20056;-86
2021/10/18 02:40:58;;;;;;;15.13;11.68;;;11.40;95.80;;;;;;5033978;28;20168;-85
2021/10/18 02:43:23;;;;;;;16.17;11.85;;;11.50;95.80;;;;;;4997850;28;20116;-86
2021/10/18 02:45:50;;;;;;;17.88;11.70;;;11.50;96.00;;;;;;5031059;28;20032;-86
2021/10/18 02:48:15;;;;;;;14.98;11.20;;;11.40;95.60;;;;;;5016795;28;20544;-86
2021/10/18 02:50:41;;;;;;;17.73;11.18;;;11.40;95.60;;;;;;5046865;28;20120;-86
2021/10/18 02:53:07;;;;;;;18.20;11.52;;;11.40;95.50;;;;;;5033705;28;20017;-86
2021/10/18 02:55:33;;;;;;;16.15;11.65;;;11.40;95.80;;;;;;5017027;28;20482;-86
2021/10/18 02:57:59;;;;;;;15.57;10.52;;;11.30;95.50;;;;;;5033796;28;20030;-86
2021/10/18 03:00:24;;;;;;;19.88;11.60;;;11.40;95.60;;;;;;5028783;28;20059;-86
2021/10/18 03:02:50;;;;;;;18.13;11.82;;;11.30;95.50;;;;;;5019162;28;20394;-86
2021/10/18 03:05:16;;;;;;;16.08;10.77;;;11.30;95.50;;;;;;5033598;28;20029;-86
2021/10/18 03:07:42;;;;;;;14.52;11.48;;;11.30;95.50;;;;;;5034536;28;20033;-86
2021/10/18 03:10:08;;;;;;;14.05;11.38;;;11.30;95.60;;;;;;5017765;28;20044;-86
2021/10/18 03:12:34;;;;;;;17.02;11.50;;;11.20;95.60;;;;;;5000679;28;20037;-87
2021/10/18 03:15:00;;;;;;;17.77;11.73;;;11.20;95.70;;;;;;5034829;28;20026;-86
2021/10/18 03:17:27;;;;;;;17.05;11.98;;;11.30;95.70;;;;;;5017415;28;20053;-86
2021/10/18 03:19:52;;;;;;;15.13;11.63;;;11.20;95.70;;;;;;5016670;28;20152;-86
2021/10/18 03:22:18;;;;;;;14.07;10.48;;;11.20;95.70;;;;;;5025750;28;20429;-87
2021/10/18 03:24:44;;;;;;;17.50;12.55;;;11.20;95.80;;;;;;5007082;28;20095;-86
2021/10/18 03:27:09;;;;;;;18.17;12.30;;;11.20;95.90;;;;;;5034118;28;20068;-86
2021/10/18 03:29:35;;;;;;;16.67;12.27;;;11.20;96.00;;;;;;5016890;28;20034;-85
2021/10/18 03:32:01;;;;;;;18.20;11.98;;;11.20;95.90;;;;;;5034788;28;20025;-86
2021/10/18 03:34:26;;;;;;;15.05;12.32;;;11.20;96.00;;;;;;5000826;28;20034;-86
2021/10/18 03:36:52;;;;;;;20.08;12.45;;;11.20;95.90;;;;;;5030875;28;20453;-86
2021/10/18 03:39:17;;;;;;;15.57;12.32;;;11.20;96.00;;;;;;5016849;28;20030;-86
2021/10/18 03:41:43;;;;;;;18.08;11.50;;;11.20;95.90;;;;;;5016641;28;20084;-85
2021/10/18 03:44:09;;;;;;;20.13;12.15;;;11.20;95.90;;;;;;5033594;28;20041;-86
2021/10/18 03:46:35;;;;;;;17.60;11.98;;;11.20;95.70;;;;;;5013897;28;20463;-86
2021/10/18 03:49:00;;;;;;;17.35;12.27;;;11.10;95.70;;;;;;5020094;28;20055;-86
2021/10/18 03:51:26;;;;;;;13.77;10.70;;;11.10;95.60;;;;;;5020168;28;20120;-86
2021/10/18 03:53:52;;;;;;;14.40;11.52;;;11.10;95.60;;;;;;5003824;28;20045;-86
2021/10/18 03:56:17;;;;;;;16.90;11.90;;;11.10;95.60;;;;;;5023106;28;20029;-86
2021/10/18 03:58:43;;;;;;;18.23;11.70;;;11.00;95.60;;;;;;5054391;28;20029;-86
2021/10/18 04:01:09;;;;;;;14.45;10.77;;;11.00;95.60;;;;;;5036940;28;20104;-86
2021/10/18 04:03:36;;;;;;;16.73;11.73;;;11.00;95.50;;;;;;5040535;28;20052;-86
2021/10/18 04:06:02;;;;;;;13.32;10.93;;;11.00;95.50;;;;;;5057922;28;20493;-86
2021/10/18 04:08:31;;;;;;;15.90;12.00;;;10.90;95.60;;;;;;5023598;28;20025;-86
2021/10/18 04:10:57;;;;;;;14.48;10.95;;;10.90;95.70;;;;;;5057998;28;20017;-86
2021/10/18 04:13:23;;;;;;;15.52;12.02;;;10.80;95.60;;;;;;5040231;28;20044;-86
2021/10/18 04:15:48;;;;;;;15.68;11.23;;;10.80;95.70;;;;;;5003354;28;20022;-86
2021/10/18 04:18:14;;;;;;;15.80;11.75;;;10.80;95.70;;;;;;5054896;28;20021;-86
2021/10/18 04:20:40;;;;;;;14.07;11.35;;;10.80;95.60;;;;;;5007459;28;20044;-87
2021/10/18 04:23:05;;;;;;;18.77;11.23;;;10.80;95.70;;;;;;5023924;28;20029;-86
2021/10/18 04:25:31;;;;;;;18.58;10.90;;;10.70;95.70;;;;;;5023748;28;20484;-86
2021/10/18 04:27:57;;;;;;;17.80;12.05;;;10.70;95.60;;;;;;5023510;28;20102;-86
2021/10/18 04:30:22;;;;;;;16.90;12.10;;;10.70;96.10;;;;;;5022655;28;20139;-86
2021/10/18 04:32:48;;;;;;;16.63;11.77;;;10.60;96.10;;;;;;5039772;28;20111;-85
2021/10/18 04:35:14;;;;;;;17.15;12.48;;;10.60;96.10;;;;;;5023784;28;20033;-86
2021/10/18 04:37:40;;;;;;;16.67;12.15;;;10.60;96.10;;;;;;5023514;28;20363;-86
2021/10/18 04:40:06;;;;;;;17.00;12.68;;;10.50;96.20;;;;;;5007213;28;20032;-86
2021/10/18 04:42:32;;;;;;;19.58;12.88;;;10.50;96.40;;;;;;5040244;28;20045;-86
2021/10/18 04:44:58;;;;;;;18.70;13.10;;;10.50;96.20;;;;;;5057488;28;20040;-86
2021/10/18 04:47:23;;;;;;;18.45;12.50;;;10.50;96.10;;;;;;5023360;28;20032;-86
2021/10/18 04:49:50;;;;;;;16.15;12.32;;;10.40;96.20;;;;;;5039637;28;20099;-85
2021/10/18 04:52:15;;;;;;;17.08;12.38;;;10.40;96.30;;;;;;5039865;28;20029;-87
2021/10/18 04:54:41;;;;;;;18.95;12.13;;;10.40;96.50;;;;;;5040629;28;20108;-86
2021/10/18 04:57:07;;;;;;;16.63;12.48;;;10.30;96.70;;;;;;5066081;28;20018;-87
2021/10/18 04:59:32;;;;;;;16.00;11.70;;;10.30;96.80;;;;;;5047382;28;20013;-87
2021/10/18 05:01:58;;;;;;;16.65;11.80;;;10.30;96.70;;;;;;5046179;28;20017;-88
2021/10/18 05:04:25;;;;;;;16.45;12.43;;;10.30;96.70;;;;;;5076628;28;20015;-88
2021/10/18 05:06:50;;;;;;;17.13;12.02;;;10.30;96.50;;;;;;5045547;28;20020;-88
2021/10/18 05:09:16;;;;;;;19.35;12.07;;;10.30;96.20;;;;;;5059629;28;20013;-88
2021/10/18 05:11:41;;;;;;;16.75;12.50;;;10.30;96.30;;;;;;5049595;28;20219;-87
2021/10/18 05:14:07;;;;;;;17.05;11.73;;;10.20;96.20;;;;;;5044123;28;20060;-87
2021/10/18 05:16:34;;;;;;;18.33;12.38;;;10.20;96.40;;;;;;5047750;28;20029;-87
2021/10/18 05:19:00;;;;;;;15.32;11.45;;;10.20;96.30;;;;;;5038612;28;20028;-86
2021/10/18 05:21:26;;;;;;;17.08;12.85;;;10.20;96.10;;;;;;5055784;28;20025;-87
2021/10/18 05:23:51;;;;;;;16.50;12.43;;;10.20;96.10;;;;;;5046807;28;20073;-87
2021/10/18 05:26:17;;;;;;;17.40;11.98;;;10.20;96.00;;;;;;5010525;28;20026;-87
2021/10/18 05:28:43;;;;;;;15.00;11.73;;;10.20;96.00;;;;;;5000714;28;20036;-86
2021/10/18 05:31:10;;;;;;;15.35;11.25;;;10.10;96.00;;;;;;5013045;28;20041;-87
2021/10/18 05:33:35;;;;;;;15.73;10.32;;;10.00;95.90;;;;;;5038051;28;20461;-87
2021/10/18 05:36:01;;;;;;;14.68;10.95;;;10.10;96.00;;;;;;5038435;28;20031;-87
2021/10/18 05:38:27;;;;;;;15.30;10.73;;;10.10;96.00;;;;;;5022894;28;20029;-87
2021/10/18 05:40:53;;;;;;;15.35;12.05;;;10.00;96.20;;;;;;5050585;28;20031;-87
2021/10/18 05:43:19;;;;;;;15.50;11.88;;;10.00;96.20;;;;;;5038729;28;20025;-88
2021/10/18 05:45:46;;;;;;;17.35;12.20;;;10.10;96.30;;;;;;5038098;28;20395;-87
2021/10/18 05:48:12;;;;;;;17.90;12.05;;;10.00;96.30;;;;;;5049443;28;20051;-87
2021/10/18 05:50:42;;;;;;;19.00;12.43;;;10.00;96.40;;;;;;5054020;28;20043;-87
2021/10/18 05:53:08;;;;;;;17.15;12.43;;;10.00;96.50;;;;;;5055706;28;20148;-87
2021/10/18 05:55:34;;;;;;;20.10;12.90;;;10.00;96.60;;;;;;5021712;28;20112;-87
2021/10/18 05:58:03;;;;;;;16.58;12.38;;;10.10;96.60;;;;;;5037792;28;20495;-88
2021/10/18 06:00:32;;;;;;;17.05;12.73;;;10.10;96.70;;;;;;5038883;28;20020;-87
2021/10/18 06:02:58;;;;;;;17.92;13.50;;;10.10;96.80;;;;;;5050862;28;20032;-87
2021/10/18 06:05:24;;;;;;;22.85;13.73;;;10.10;96.80;;;;;;5021361;28;20033;-87
2021/10/18 06:07:50;;;;;;;21.15;14.02;;;10.10;96.80;;;;;;5027190;28;20024;-87
2021/10/18 06:10:16;;;;;;;16.52;13.60;;;10.10;96.80;;;;;;5041190;28;20078;-87
2021/10/18 06:12:42;;;;;;;18.25;13.43;;;10.10;96.80;;;;;;5020493;28;20064;-88
2021/10/18 06:15:10;;;;;;;21.92;14.70;;;10.10;96.80;;;;;;5027218;28;20029;-88
2021/10/18 06:17:36;;;;;;;19.00;14.23;;;10.10;96.90;;;;;;5037571;28;20508;-87
2021/10/18 06:20:04;;;;;;;18.88;13.88;;;10.10;97.00;;;;;;5037441;28;20033;-88
2021/10/18 06:22:29;;;;;;;20.48;13.93;;;10.10;97.00;;;;;;5005178;28;20033;-88
2021/10/18 06:24:55;;;;;;;20.23;13.73;;;10.10;97.10;;;;;;5050564;28;20071;-88
2021/10/18 06:27:21;;;;;;;22.27;15.30;;;10.10;97.10;;;;;;5021049;28;20386;-87
2021/10/18 06:29:47;;;;;;;21.73;15.40;;;10.10;97.10;;;;;;5020561;28;20017;-88
2021/10/18 06:32:12;;;;;;;21.65;14.70;;;10.10;97.20;;;;;;5030792;28;20044;-88
2021/10/18 06:34:38;;;;;;;21.92;15.30;;;10.10;97.20;;;;;;5008702;28;20397;-88
2021/10/18 06:37:04;;;;;;;19.83;13.80;;;10.00;97.30;;;;;;5052765;28;20063;-88
2021/10/18 06:39:30;;;;;;;19.15;13.93;;;10.00;97.30;;;;;;5020950;28;20021;-88
2021/10/18 06:41:55;;;;;;;17.67;14.05;;;10.00;97.30;;;;;;5036923;28;20033;-88
2021/10/18 06:44:21;;;;;;;22.00;13.98;;;10.00;97.30;;;;;;5018079;28;20429;-87
2021/10/18 06:46:47;;;;;;;21.45;13.73;;;10.00;97.30;;;;;;5047841;28;20057;-88
2021/10/18 06:49:13;;;;;;;19.48;14.68;;;10.00;97.40;;;;;;5033733;28;20061;-88
2021/10/18 06:51:46;;;;;;;21.45;14.40;;;10.00;97.40;;;;;;5033878;28;20053;-88
2021/10/18 06:54:13;;;;;;;19.90;14.05;;;10.00;97.40;;;;;;5053525;28;20079;-87
2021/10/18 06:56:44;;;;;;;20.02;13.75;;;10.00;97.50;;;;;;5055037;28;20021;-88
2021/10/18 06:59:11;;;;;;;22.70;14.10;;;10.00;97.50;;;;;;5008257;28;20017;-88
2021/10/18 07:01:37;;;;;;;20.40;14.27;;;10.00;97.60;;;;;;5027265;28;20026;-88
2021/10/18 07:04:03;;;;;;;22.17;15.63;;;10.00;97.70;;;;;;5033893;28;20044;-88
2021/10/18 07:06:28;;;;;;;22.23;15.68;;;10.00;97.70;;;;;;5013939;28;20026;-88
2021/10/18 07:08:54;;;;;;;22.52;14.20;;;10.00;97.80;;;;;;5038865;28;20390;-88
2021/10/18 07:11:19;;;;;;;24.02;15.80;;;10.00;97.90;;;;;;5022135;28;20040;-88
2021/10/18 07:13:45;;;;;;;24.00;15.05;;;10.10;97.90;;;;;;5004009;28;20042;-89
2021/10/18 07:16:11;;;;;;;19.88;14.70;;;10.10;97.90;;;;;;5017954;28;20029;-88
2021/10/18 07:18:36;;;;;;;22.70;15.57;;;10.10;97.90;;;;;;5047867;28;20036;-89
2021/10/18 07:21:02;;;;;;;22.00;15.52;;;10.10;97.90;;;;;;5014908;28;20538;-89
2021/10/18 07:23:28;;;;;;;22.10;14.50;;;10.10;98.20;;;;;;5017828;28;20087;-88
2021/10/18 07:25:56;;;;;;;20.85;14.18;;;10.20;97.90;;;;;;5017642;28;20025;-88
2021/10/18 07:28:22;;;;;;;22.75;14.77;;;10.20;97.90;;;;;;5043094;28;20021;-88
2021/10/18 07:30:47;;;;;;;20.90;14.85;;;10.20;97.90;;;;;;5023728;28;20414;-88
2021/10/18 07:33:13;;;;;;;22.50;13.93;;;10.20;97.90;;;;;;5026316;28;20041;-87
2021/10/18 07:35:39;;;;;;;21.85;13.85;;;10.20;97.90;;;;;;5033018;28;20022;-88
2021/10/18 07:38:06;;;;;;;21.77;14.82;;;10.20;97.90;;;;;;5050842;28;20184;-88
2021/10/18 07:40:32;;;;;;;19.42;13.63;;;10.30;97.90;;;;;;5038909;28;20101;-88
2021/10/18 07:43:00;;;;;;;19.23;13.55;;;10.30;97.90;;;;;;5039997;28;20026;-88
2021/10/18 07:45:26;;;;;;;19.58;14.13;;;10.30;97.90;;;;;;5037107;28;20033;-86
2021/10/18 07:47:52;;;;;;;21.15;14.32;;;10.30;97.90;;;;;;5038474;28;20362;-87
2021/10/18 07:50:17;;;;;;;20.83;13.75;;;10.30;97.90;;;;;;5004700;28;20499;-88
2021/10/18 07:52:51;;;;;;;20.30;13.55;;;10.40;97.90;;;;;;5040444;28;20029;-88
2021/10/18 07:55:18;;;;;;;18.85;14.02;;;10.40;97.90;;;;;;5024702;28;20064;-89
2021/10/18 07:57:47;;;;;;;18.52;13.27;;;10.40;97.90;;;;;;5040202;28;20021;-87
2021/10/18 08:00:13;;;;;;;20.35;13.63;;;10.50;97.90;;;;;;5048155;28;20028;-87
2021/10/18 08:02:39;;;;;;;18.23;13.23;;;10.50;97.90;;;;;;5043941;28;20028;-88
2021/10/18 08:05:06;;;;;;;17.30;12.02;;;10.50;97.90;;;;;;5030508;28;20032;-88
2021/10/18 08:07:37;;;;;;;17.33;12.75;;;10.50;97.90;;;;;;5033279;28;20124;-87
2021/10/18 08:10:06;;;;;;;17.05;11.60;;;10.60;97.90;;;;;;5023484;28;20033;-87
2021/10/18 08:12:32;;;;;;;20.52;13.43;;;10.60;97.90;;;;;;5057782;28;20361;-88
2021/10/18 08:14:58;;;;;;;18.55;13.20;;;10.60;97.80;;;;;;5043454;28;20037;-87
2021/10/18 08:17:24;;;;;;;16.95;12.88;;;10.60;97.80;;;;;;5055600;28;20146;-87
2021/10/18 08:19:50;;;;;;;18.45;13.10;;;10.70;97.80;;;;;;5021303;28;20041;-87
2021/10/18 08:22:16;;;;;;;21.10;14.18;;;10.70;97.80;;;;;;5057212;28;20017;-87
2021/10/18 08:24:42;;;;;;;18.15;14.15;;;10.70;97.80;;;;;;5061395;28;20587;-87
2021/10/18 08:27:08;;;;;;;20.92;16.35;;;10.80;97.80;;;;;;5038731;28;20056;-88
2021/10/18 08:29:34;;;;;;;19.83;15.30;;;10.80;97.70;;;;;;5019371;28;20097;-87
2021/10/18 08:31:59;;;;;;;20.30;14.48;;;10.80;97.70;;;;;;5057823;28;20039;-86
2021/10/18 08:34:25;;;;;;;21.13;15.68;;;10.90;97.80;;;;;;5039601;28;20033;-87
2021/10/18 08:36:51;;;;;;;19.05;15.10;;;10.90;97.70;;;;;;5042374;28;20053;-87
2021/10/18 08:41:54;;;;;;;18.95;13.35;;;10.90;97.70;;;;;;5073388;28;20052;-88
2021/10/18 08:44:19;;;;;;;18.58;13.70;;;11.00;97.70;;;;;;5057692;28;20093;-88
2021/10/18 08:46:52;;;;;;;17.65;12.95;;;11.00;97.80;;;;;;5053450;28;20025;-87
2021/10/18 08:49:19;;;;;;;16.33;11.65;;;11.10;97.70;;;;;;5058090;28;20073;-88
2021/10/18 08:51:45;;;;;;;15.73;11.90;;;11.20;97.80;;;;;;5057756;28;20021;-87
2021/10/18 08:54:11;;;;;;;18.27;11.73;;;11.20;97.70;;;;;;5058736;28;20049;-89
2021/10/18 08:56:37;;;;;;;18.00;11.68;;;11.30;97.70;;;;;;5069454;22;20041;-85
2021/10/18 08:59:04;;;;;;;16.38;11.23;;;11.30;97.70;;;;;;5054294;28;20021;-86
2021/10/18 09:01:42;;;;;;;14.32;10.38;;;11.40;97.60;;;;;;5062308;28;20049;-88
2021/10/18 09:04:25;;;;;;;16.48;11.35;;;11.40;97.60;;;;;;5062550;28;20024;-87
2021/10/18 09:06:53;;;;;;;16.75;11.70;;;11.50;97.50;;;;;;5070149;28;20024;-88
2021/10/18 09:09:23;;;;;;;15.43;10.75;;;11.50;97.50;;;;;;5067019;28;20070;-87
2021/10/18 09:11:49;;;;;;;15.45;11.40;;;11.50;97.50;;;;;;5052421;28;20123;-86
2021/10/18 09:14:15;;;;;;;15.75;10.93;;;11.60;97.50;;;;;;5050538;28;20116;-88
2021/10/18 09:16:44;;;;;;;13.75;11.55;;;11.70;97.30;;;;;;5034286;28;20074;-89
2021/10/18 09:19:11;;;;;;;14.90;11.32;;;11.70;97.30;;;;;;5050428;28;20017;-86
2021/10/18 09:22:04;;;;;;;15.35;11.68;;;11.70;97.20;;;;;;5044075;28;20025;-88
2021/10/18 09:24:30;;;;;;;15.98;11.98;;;11.80;96.80;;;;;;5044838;28;20441;-87
2021/10/18 09:26:58;;;;;;;19.10;11.95;;;11.80;96.80;;;;;;5044411;28;20140;-85
2021/10/18 09:29:46;;;;;;;14.73;11.90;;;11.80;96.60;;;;;;5035678;28;20033;-86
2021/10/18 09:32:20;;;;;;;15.65;12.25;;;11.90;96.50;;;;;;5045599;28;20465;-86
2021/10/18 09:34:47;;;;;;;16.17;11.55;;;12.00;96.60;;;;;;5055348;28;20048;-83
2021/10/18 09:37:14;;;;;;;16.48;11.48;;;12.00;96.80;;;;;;5017693;28;20051;-86
2021/10/18 09:39:44;;;;;;;14.55;11.38;;;12.10;96.80;;;;;;5024540;28;20033;-87
2021/10/18 09:42:12;;;;;;;16.45;11.70;;;12.10;96.70;;;;;;5025467;28;20413;-88
2021/10/18 10:52:58;;;;;;;14.52;11.45;;;13.60;92.60;;;;;;5062239;28;20043;-88
2021/10/18 10:55:33;;;;;;;16.42;12.50;;;13.70;92.60;;;;;;5013489;28;20479;-87
2021/10/18 10:58:03;;;;;;;15.75;11.98;;;13.80;93.10;;;;;;5051490;28;20056;-87
2021/10/18 11:00:41;;;;;;;16.08;11.93;;;13.80;92.90;;;;;;5055432;28;20024;-87
2021/10/18 11:03:23;;;;;;;15.35;11.30;;;13.90;93.20;;;;;;5042034;28;20032;-88
2021/10/18 11:05:59;;;;;;;14.57;11.98;;;14.00;93.50;;;;;;5059325;28;20023;-88
2021/10/18 11:08:35;;;;;;;16.50;11.90;;;14.10;93.00;;;;;;5059579;28;20025;-87
2021/10/18 11:11:14;;;;;;;16.45;12.65;;;14.10;93.20;;;;;;5058294;28;20087;-88
2021/10/18 11:13:49;;;;;;;16.50;12.25;;;14.20;92.90;;;;;;5067464;28;20112;-89
2021/10/18 11:16:16;;;;;;;16.80;12.95;;;14.30;93.10;;;;;;5060263;28;20424;-89
2021/10/18 11:18:54;;;;;;;16.40;11.73;;;14.40;92.70;;;;;;5076839;28;20450;-89
2021/10/18 11:21:24;;;;;;;16.35;11.90;;;14.40;92.80;;;;;;5076812;28;20013;-87
2021/10/18 11:24:04;;;;;;;16.50;11.63;;;14.50;92.90;;;;;;5056985;28;20029;-87
2021/10/18 11:26:34;;;;;;;16.25;11.98;;;14.50;92.90;;;;;;5080093;28;20020;-87
2021/10/18 11:29:02;;;;;;;16.52;13.13;;;14.60;92.90;;;;;;5048611;28;20129;-87
2021/10/18 11:31:31;;;;;;;16.15;11.75;;;14.60;92.90;;;;;;5049784;28;20016;-87
2021/10/18 11:34:14;;;;;;;17.58;11.85;;;14.60;92.90;;;;;;5058597;28;20025;-87
2021/10/18 11:36:48;;;;;;;16.80;12.88;;;14.70;93.10;;;;;;5060188;28;20020;-87
2021/10/18 11:39:23;;;;;;;18.00;13.15;;;14.80;92.80;;;;;;5078611;28;20021;-87
2021/10/18 11:42:05;;;;;;;16.80;12.85;;;14.90;92.10;;;;;;5057873;28;20107;-87
2021/10/18 11:44:50;;;;;;;16.48;12.30;;;14.90;92.50;;;;;;5060135;28;20052;-87
2021/10/18 11:47:54;;;;;;;17.58;12.82;;;15.00;92.50;;;;;;5058409;28;20025;-87
2021/10/18 11:54:34;;;;;;;16.17;12.18;;;15.10;92.40;;;;;;5080902;28;20086;-87
2021/10/18 11:57:00;;;;;;;17.83;12.20;;;15.10;91.90;;;;;;5075283;28;20046;-87
2021/10/18 11:59:26;;;;;;;17.13;11.68;;;15.20;92.00;;;;;;5075818;28;20089;-87
2021/10/18 12:01:52;;;;;;;15.38;12.18;;;15.20;92.10;;;;;;5059302;28;20112;-88
2021/10/18 12:07:47;;;;;;;16.17;12.48;;;15.30;92.20;;;;;;5064179;28;20027;-87
2021/10/18 12:10:19;;;;;;;15.68;12.30;;;15.30;91.70;;;;;;5036234;28;20056;-88
2021/10/18 12:13:10;;;;;;;15.02;12.38;;;15.30;91.70;;;;;;5059984;28;20036;-87
2021/10/18 12:16:02;;;;;;;16.83;11.77;;;15.40;91.00;;;;;;5077448;28;20090;-88
2021/10/18 12:18:31;;;;;;;14.73;12.13;;;15.40;90.20;;;;;;5075207;28;20032;-88
2021/10/18 12:21:00;;;;;;;15.55;11.55;;;15.40;90.30;;;;;;5059904;28;20025;-88
2021/10/18 12:23:29;;;;;;;14.82;11.70;;;15.40;90.70;;;;;;5061848;28;20393;-87
2021/10/18 12:26:17;;;;;;;15.07;11.43;;;15.40;90.70;;;;;;5061765;28;20008;-87
2021/10/18 12:28:57;;;;;;;14.93;10.70;;;15.40;90.10;;;;;;5062153;28;20020;-86
2021/10/18 12:31:41;;;;;;;15.38;11.07;;;15.40;89.50;;;;;;5045173;28;20020;-87
2021/10/18 12:34:27;;;;;;;14.18;10.98;;;15.40;90.00;;;;;;5050338;28;20044;-87
2021/10/18 12:37:09;;;;;;;12.93;10.50;;;15.40;90.10;;;;;;5064482;28;20032;-87
2021/10/18 12:39:53;;;;;;;15.02;11.27;;;15.40;89.50;;;;;;5062630;28;20029;-87
2021/10/18 12:42:28;;;;;;;13.68;11.13;;;15.40;89.90;;;;;;5063066;28;20020;-87
2021/10/18 12:45:15;;;;;;;17.42;10.88;;;15.40;90.20;;;;;;5063881;28;20021;-88
2021/10/18 12:47:56;;;;;;;14.63;10.68;;;15.40;90.20;;;;;;5051480;28;20024;-87
2021/10/18 12:50:24;;;;;;;14.27;10.98;;;15.50;89.80;;;;;;5082916;28;20047;-86
2021/10/18 12:53:01;;;;;;;15.38;10.50;;;15.50;90.40;;;;;;5049587;28;20054;-87
2021/10/18 12:55:35;;;;;;;16.35;11.38;;;15.50;88.70;;;;;;5047702;28;20020;-87
2021/10/18 12:58:03;;;;;;;14.23;10.57;;;15.50;89.80;;;;;;5064390;28;20471;-87
2021/10/18 13:00:32;;;;;;;13.18;9.70;;;15.50;89.40;;;;;;5063787;28;20139;-87
2021/10/18 13:03:14;;;;;;;12.82;9.93;;;15.50;89.90;;;;;;5056460;28;20462;-88
2021/10/18 13:05:50;;;;;;;13.68;10.20;;;15.50;89.00;;;;;;5057791;28;20044;-87
2021/10/18 13:08:21;;;;;;;14.95;10.35;;;15.50;89.80;;;;;;5046942;28;20074;-88
2021/10/18 13:10:50;;;;;;;14.73;10.32;;;15.50;90.00;;;;;;5061184;28;20456;-87
2021/10/18 13:13:18;;;;;;;13.55;10.05;;;15.50;89.20;;;;;;5058921;28;20377;-88
2021/10/18 13:15:45;;;;;;;14.55;10.60;;;15.60;89.60;;;;;;5046277;28;20078;-87
2021/10/18 13:18:13;;;;;;;12.02;9.75;;;15.60;89.50;;;;;;5045962;28;20481;-88
2021/10/18 13:20:40;;;;;;;11.80;9.18;;;15.60;89.60;;;;;;5049304;28;20466;-87
2021/10/18 13:23:07;;;;;;;12.30;9.70;;;15.70;90.10;;;;;;5065163;28;20016;-87
2021/10/18 13:25:35;;;;;;;14.65;9.43;;;15.70;90.10;;;;;;5062752;28;20120;-88
2021/10/18 13:28:03;;;;;;;12.50;9.02;;;15.80;89.70;;;;;;5063720;28;20058;-87
2021/10/18 13:30:30;;;;;;;11.98;9.10;;;15.80;90.00;;;;;;5066732;28;20035;-87
2021/10/18 13:32:57;;;;;;;12.52;9.18;;;15.80;90.00;;;;;;5061943;28;20448;-87
2021/10/18 13:35:24;;;;;;;16.27;9.00;;;15.80;89.40;;;;;;5065135;28;20017;-87
2021/10/18 13:37:51;;;;;;;11.68;8.75;;;15.90;90.20;;;;;;5062245;28;20019;-87
2021/10/18 13:40:18;;;;;;;12.70;9.40;;;15.90;90.20;;;;;;5045367;28;20078;-88
2021/10/18 13:42:45;;;;;;;12.13;9.18;;;16.00;89.50;;;;;;5041222;28;20027;-87
2021/10/18 13:45:14;;;;;;;10.85;8.75;;;16.00;90.00;;;;;;5069542;28;20034;-87
2021/10/18 13:47:40;;;;;;;13.18;9.43;;;16.10;89.30;;;;;;5062013;28;20024;-87
2021/10/18 13:50:07;;;;;;;11.23;8.48;;;16.10;89.20;;;;;;5092859;28;20073;-87
2021/10/18 13:52:33;;;;;;;11.65;8.93;;;16.10;89.60;;;;;;5047913;28;20489;-87